Time;durP1;ratioP1;P1;durP2;ratioP2;P2;SDS_P1;SDS_P2;PMS_P1;PMS_P2;Temp;Humidity;BMP_temperature;BMP_pressure;BME280_temperature;BME280_humidity;BME280_pressure;Samples;Min_cycle;Max_cycle;Signal;HPM_P1;HPM_P2
2022/12/15 00:41:37;;;;;;;40.17;26.20;;;;;;;-1.54;89.67;96395.81;6242506;28;20289;-67
2022/12/15 00:44:39;;;;;;;43.20;26.27;;;;;;;-1.54;89.86;96395.81;6241862;28;20288;-67
2022/12/15 00:47:41;;;;;;;42.87;25.57;;;;;;;-1.51;89.93;96399.09;6232545;28;20227;-67
2022/12/15 00:50:52;;;;;;;48.73;28.13;;;;;;;-1.49;89.83;96396.41;6245006;28;20581;-67
2022/12/15 01:20:44;;;;;;;41.60;24.50;;;;;;;-1.44;90.94;96440.97;6242245;28;20311;-67
2022/12/15 01:23:46;;;;;;;39.77;23.70;;;;;;;-1.42;91.12;96449.50;6243216;28;20245;-67
2022/12/15 01:26:49;;;;;;;42.00;25.70;;;;;;;-1.40;91.04;96450.28;6226033;28;20232;-67
2022/12/15 01:29:51;;;;;;;38.67;23.03;;;;;;;-1.40;90.98;96432.16;6231567;28;20702;-67
2022/12/15 01:32:53;;;;;;;44.17;27.40;;;;;;;-1.40;91.29;96450.28;6240972;28;20330;-68
2022/12/15 01:35:59;;;;;;;43.47;25.20;;;;;;;-1.38;90.96;96452.75;6231230;28;20268;-68
2022/12/15 01:39:02;;;;;;;41.57;26.00;;;;;;;-1.37;90.81;96446.66;6241960;28;20271;-68
2022/12/15 01:42:04;;;;;;;36.17;22.90;;;;;;;-1.35;91.06;96458.59;6240919;28;20259;-68
2022/12/15 01:45:27;;;;;;;40.63;24.23;;;;;;;-1.32;90.85;96457.63;6226175;28;20365;-68
2022/12/15 01:48:39;;;;;;;37.10;22.63;;;;;;;-1.30;91.03;96466.16;6243003;28;20310;-67
2022/12/15 01:51:47;;;;;;;40.60;24.33;;;;;;;-1.31;91.19;96469.66;6241001;28;20323;-68
2022/12/15 01:54:54;;;;;;;40.13;24.67;;;;;;;-1.32;91.07;96468.81;6230218;28;20310;-67
2022/12/15 01:58:02;;;;;;;37.43;23.73;;;;;;;-1.32;91.09;96467.97;6242699;28;20679;-67
2022/12/15 02:01:05;;;;;;;37.73;23.10;;;;;;;-1.31;91.11;96485.16;6241528;28;20318;-67
2022/12/15 02:04:08;;;;;;;41.07;24.20;;;;;;;-1.31;90.93;96486.00;6240912;28;20223;-68
2022/12/15 02:07:14;;;;;;;35.10;22.07;;;;;;;-1.28;91.04;96487.56;6239611;28;20223;-68
2022/12/15 02:10:16;;;;;;;38.07;23.83;;;;;;;-1.28;91.04;96479.81;6240133;28;20230;-67
2022/12/15 02:13:32;;;;;;;40.37;25.43;;;;;;;-1.28;90.57;96492.75;6233177;28;20365;-68
2022/12/15 02:16:47;;;;;;;41.00;23.93;;;;;;;-1.30;90.56;96498.03;6226990;28;20935;-68
2022/12/15 02:20:26;;;;;;;38.20;24.17;;;;;;;-1.30;90.55;96499.78;6240354;28;20310;-68
2022/12/15 02:23:39;;;;;;;41.83;25.87;;;;;;;-1.32;90.77;96504.19;6240546;28;20231;-68
2022/12/15 02:26:44;;;;;;;41.53;25.07;;;;;;;-1.32;90.79;96509.38;6239879;28;20312;-68
2022/12/15 02:30:08;;;;;;;42.40;24.90;;;;;;;-1.32;90.86;96517.13;6241787;28;20326;-68
2022/12/15 02:33:23;;;;;;;38.77;24.60;;;;;;;-1.33;91.01;96528.41;6241117;28;20396;-68
2022/12/15 02:36:28;;;;;;;40.63;24.57;;;;;;;-1.34;91.26;96537.91;6239360;28;20726;-67
2022/12/15 02:39:30;;;;;;;40.97;24.40;;;;;;;-1.32;91.21;96514.53;6229453;28;20258;-67
2022/12/15 02:42:34;;;;;;;41.00;24.53;;;;;;;-1.33;91.13;96515.47;6242836;28;20234;-68
2022/12/15 02:45:54;;;;;;;39.73;25.07;;;;;;;-1.33;91.03;96523.22;6237768;28;20223;-68
2022/12/15 02:48:56;;;;;;;40.63;24.37;;;;;;;-1.35;91.17;96514.69;6242295;28;20234;-67
2022/12/15 02:52:26;;;;;;;45.97;26.00;;;;;;;-1.33;91.29;96529.22;6243123;28;20242;-67
2022/12/15 02:55:45;;;;;;;45.77;26.13;;;;;;;-1.34;91.04;96539.66;6224280;28;20411;-67
2022/12/15 02:59:12;;;;;;;37.60;23.97;;;;;;;-1.33;90.88;96559.44;6243278;28;20232;-67
2022/12/15 03:02:14;;;;;;;40.37;23.70;;;;;;;-1.33;91.41;96569.81;6234888;28;20230;-68
2022/12/15 03:05:18;;;;;;;38.93;24.63;;;;;;;-1.35;91.33;96562.09;6234613;28;20309;-67
2022/12/15 03:08:21;;;;;;;38.10;23.70;;;;;;;-1.34;91.51;96563.78;6222563;28;20257;-67
2022/12/15 03:11:23;;;;;;;44.10;25.17;;;;;;;-1.32;91.09;96566.31;6245243;28;20236;-67
2022/12/15 03:14:25;;;;;;;39.27;25.00;;;;;;;-1.31;91.32;96562.81;6246131;28;20227;-68
2022/12/15 03:17:27;;;;;;;41.53;25.03;;;;;;;-1.30;91.32;96574.84;6215537;28;20357;-67
2022/12/15 03:20:29;;;;;;;39.93;24.70;;;;;;;-1.30;90.98;96575.66;6234786;28;20234;-67
2022/12/15 03:23:32;;;;;;;40.67;25.80;;;;;;;-1.30;90.93;96574.84;6244423;28;20229;-67
2022/12/15 03:26:35;;;;;;;37.87;22.90;;;;;;;-1.31;91.22;96584.34;6225630;28;20234;-67
2022/12/15 03:29:37;;;;;;;42.90;25.37;;;;;;;-1.31;91.32;96588.69;6241168;28;20232;-68
2022/12/15 03:32:39;;;;;;;42.20;24.93;;;;;;;-1.30;91.38;96593.78;6245731;28;20222;-67
2022/12/15 03:35:41;;;;;;;42.07;26.03;;;;;;;-1.32;90.97;96582.66;6220053;28;20258;-67
2022/12/15 03:38:43;;;;;;;39.57;23.63;;;;;;;-1.33;91.23;96591.34;6243989;28;20230;-68
2022/12/15 03:41:45;;;;;;;42.50;26.17;;;;;;;-1.32;91.23;96602.53;6243375;28;20735;-68
2022/12/15 03:44:47;;;;;;;40.87;24.97;;;;;;;-1.32;91.50;96599.94;6234505;28;20223;-67
2022/12/15 03:47:50;;;;;;;37.33;23.07;;;;;;;-1.30;91.41;96600.72;6246437;28;20223;-68
2022/12/15 03:50:52;;;;;;;41.67;25.77;;;;;;;-1.30;91.19;96618.81;6250432;28;20223;-67
2022/12/15 03:53:54;;;;;;;41.50;25.53;;;;;;;-1.32;91.36;96631.00;6244555;28;20365;-68
2022/12/15 03:56:56;;;;;;;50.63;28.67;;;;;;;-1.32;91.22;96623.22;6242716;28;20609;-67
2022/12/15 03:59:58;;;;;;;42.23;26.67;;;;;;;-1.36;91.55;96622.53;6227993;28;20223;-67
2022/12/15 04:03:00;;;;;;;44.83;27.27;;;;;;;-1.39;91.91;96612.34;6252812;28;20710;-67
2022/12/15 04:06:03;;;;;;;42.17;26.53;;;;;;;-1.42;92.32;96603.91;6248053;28;20227;-67
2022/12/15 04:09:05;;;;;;;47.77;27.80;;;;;;;-1.46;92.95;96608.38;6243205;28;20207;-67
2022/12/15 04:12:10;;;;;;;49.70;29.17;;;;;;;-1.46;92.99;96595.44;6246640;28;20246;-67
2022/12/15 04:15:12;;;;;;;45.13;27.83;;;;;;;-1.44;93.85;96590.19;6242866;28;20239;-67
2022/12/15 04:18:14;;;;;;;46.87;26.27;;;;;;;-1.40;93.95;96602.91;6225627;28;20212;-68
2022/12/15 04:21:16;;;;;;;47.63;27.60;;;;;;;-1.35;95.00;96624.22;6238990;28;20261;-69
2022/12/15 05:34:41;;;;;;;39.50;25.20;;;;;;;-1.17;96.29;96700.09;6240928;28;20246;-68
2022/12/15 05:37:43;;;;;;;44.70;26.67;;;;;;;-1.17;96.66;96697.50;6224005;28;20256;-68
2022/12/15 05:40:45;;;;;;;43.27;26.50;;;;;;;-1.17;96.33;96698.34;6240630;28;20223;-68
2022/12/15 05:43:48;;;;;;;39.50;25.20;;;;;;;-1.15;96.68;96699.13;6237790;28;20231;-68
2022/12/15 05:46:50;;;;;;;45.37;28.63;;;;;;;-1.14;96.70;96700.78;6232208;28;20648;-68
2022/12/15 05:49:52;;;;;;;40.87;26.17;;;;;;;-1.13;96.71;96710.25;6243606;28;20241;-68
2022/12/15 05:52:57;;;;;;;49.03;29.30;;;;;;;-1.12;96.71;96716.25;6241179;28;20277;-68
2022/12/15 05:56:03;;;;;;;48.07;28.20;;;;;;;-1.12;96.54;96724.03;6240756;28;20242;-68
2022/12/15 05:59:05;;;;;;;47.73;28.07;;;;;;;-1.14;96.52;96723.25;6242792;28;20770;-68
2022/12/15 06:02:07;;;;;;;44.43;27.67;;;;;;;-1.17;96.99;96721.66;6240028;28;20227;-68
2022/12/15 06:05:09;;;;;;;40.20;26.27;;;;;;;-1.17;96.78;96726.81;6240564;28;20574;-68
2022/12/15 06:08:12;;;;;;;43.93;26.37;;;;;;;-1.16;96.95;96719.91;6239899;28;20237;-68
2022/12/15 06:11:16;;;;;;;46.20;27.73;;;;;;;-1.16;97.17;96697.44;6239747;28;20230;-68
2022/12/15 06:14:18;;;;;;;45.27;28.47;;;;;;;-1.14;97.20;96705.13;6241628;28;20234;-68
2022/12/15 06:17:20;;;;;;;51.50;29.20;;;;;;;-1.14;97.12;96705.13;6240179;28;20235;-68
2022/12/15 06:20:23;;;;;;;45.10;27.70;;;;;;;-1.14;97.24;96726.69;6238999;28;20741;-69
2022/12/15 06:23:27;;;;;;;44.33;27.33;;;;;;;-1.13;96.91;96746.47;6240480;28;20351;-68
2022/12/15 06:26:32;;;;;;;46.50;26.17;;;;;;;-1.12;97.21;96753.34;6237942;28;20318;-67
2022/12/15 06:29:34;;;;;;;48.63;29.37;;;;;;;-1.10;97.47;96763.63;6229124;28;20826;-69
2022/12/15 06:32:36;;;;;;;51.63;30.30;;;;;;;-1.13;97.36;96762.00;6240824;28;20766;-69
2022/12/15 06:35:38;;;;;;;49.70;28.63;;;;;;;-1.12;97.87;96765.44;6222936;28;20227;-69
2022/12/15 06:38:44;;;;;;;49.27;29.10;;;;;;;-1.11;97.69;96772.28;6241246;28;20231;-68
2022/12/15 06:41:50;;;;;;;54.40;30.03;;;;;;;-1.11;97.74;96767.13;6231156;28;20224;-69
2022/12/15 06:44:52;;;;;;;50.17;30.87;;;;;;;-1.12;98.16;96778.38;6241578;28;20282;-69
2022/12/15 06:47:54;;;;;;;49.07;28.10;;;;;;;-1.10;97.92;96789.50;6239851;28;20233;-69
2022/12/15 06:51:07;;;;;;;53.67;31.20;;;;;;;-1.08;98.25;96794.59;6245872;28;20243;-68
2022/12/15 06:54:17;;;;;;;42.63;26.50;;;;;;;-1.08;98.18;96795.44;6239553;28;20597;-69
2022/12/15 06:57:19;;;;;;;53.47;30.27;;;;;;;-1.05;98.63;96786.69;6242743;28;20246;-69
2022/12/15 07:00:22;;;;;;;54.23;31.20;;;;;;;-1.06;98.27;96788.44;6240640;28;20241;-68
2022/12/15 07:03:24;;;;;;;50.93;29.63;;;;;;;-1.06;98.10;96778.06;6240426;28;20727;-68
2022/12/15 07:06:30;;;;;;;48.20;29.70;;;;;;;-1.03;98.43;96780.53;6230037;28;20223;-68
2022/12/15 07:09:32;;;;;;;50.37;31.57;;;;;;;-1.01;98.79;96799.41;6242361;28;20313;-68
2022/12/15 07:12:34;;;;;;;51.77;30.40;;;;;;;-0.99;98.48;96799.31;6235912;28;20282;-68
2022/12/15 07:15:37;;;;;;;47.67;28.50;;;;;;;-0.98;98.63;96808.75;6240886;28;20242;-68
2022/12/15 07:18:39;;;;;;;43.47;26.77;;;;;;;-0.95;99.37;96813.81;6239880;28;20297;-69
2022/12/15 07:21:41;;;;;;;40.53;25.43;;;;;;;-0.92;98.82;96811.06;6231770;28;20247;-69
2022/12/15 07:24:43;;;;;;;50.07;29.43;;;;;;;-0.89;98.90;96814.34;6242368;28;20309;-68
2022/12/15 07:27:46;;;;;;;45.60;28.53;;;;;;;-0.92;99.25;96809.31;6230465;28;20222;-68
2022/12/15 07:30:48;;;;;;;46.80;27.90;;;;;;;-0.91;99.24;96818.78;6239207;28;20231;-68
2022/12/15 07:33:51;;;;;;;48.33;29.97;;;;;;;-0.89;99.38;96826.44;6240563;28;20769;-69
2022/12/15 07:36:54;;;;;;;55.33;31.90;;;;;;;-0.85;99.18;96838.34;6242819;28;20235;-69
2022/12/15 07:39:56;;;;;;;44.67;26.43;;;;;;;-0.83;99.05;96862.41;6246580;28;20306;-68
2022/12/15 07:42:58;;;;;;;57.30;29.70;;;;;;;-0.81;99.26;96847.66;6250531;28;20571;-68
2022/12/15 07:46:01;;;;;;;52.63;30.43;;;;;;;-0.77;99.14;96854.34;6248308;28;20234;-68
2022/12/15 07:49:03;;;;;;;47.57;28.37;;;;;;;-0.72;99.41;96856.72;6246334;28;20234;-68
2022/12/15 07:52:06;;;;;;;47.17;27.13;;;;;;;-0.67;99.32;96872.88;6249432;28;20330;-68
2022/12/15 07:55:08;;;;;;;42.90;25.37;;;;;;;-0.62;99.24;96882.09;6243165;28;20706;-68
2022/12/15 07:58:10;;;;;;;48.70;27.17;;;;;;;-0.56;99.01;96888.72;6233528;28;20675;-68
2022/12/15 08:01:14;;;;;;;42.63;26.23;;;;;;;-0.48;98.90;96890.03;6245516;28;20797;-68
2022/12/15 08:04:17;;;;;;;38.93;24.80;;;;;;;-0.38;99.17;96891.25;6243705;28;20601;-69
2022/12/15 08:07:19;;;;;;;35.70;22.10;;;;;;;-0.31;99.16;96901.34;6234835;28;20231;-68
2022/12/15 08:10:21;;;;;;;39.27;24.33;;;;;;;-0.25;98.44;96896.66;6227764;28;20245;-69
2022/12/15 08:13:23;;;;;;;39.50;25.23;;;;;;;-0.19;98.88;96892.91;6241288;28;20313;-67
2022/12/15 08:16:45;;;;;;;39.40;24.10;;;;;;;-0.11;98.36;96883.03;6242553;28;20232;-68
2022/12/15 08:19:47;;;;;;;36.50;22.17;;;;;;;0.02;97.89;96896.19;6244823;28;20711;-68
2022/12/15 08:22:50;;;;;;;41.33;23.93;;;;;;;0.09;97.89;96892.38;6228490;28;20272;-68
2022/12/15 08:25:52;;;;;;;37.23;22.90;;;;;;;0.14;96.74;96905.94;6243713;28;20699;-68
2022/12/15 08:28:54;;;;;;;33.70;21.90;;;;;;;0.19;96.38;96911.75;6241876;28;20218;-69
2022/12/15 08:31:56;;;;;;;38.00;24.23;;;;;;;0.21;95.45;96917.66;6225952;28;20775;-69
2022/12/15 08:34:59;;;;;;;38.50;22.87;;;;;;;0.25;95.04;96916.59;6232377;28;20224;-69
2022/12/15 08:38:01;;;;;;;31.47;20.53;;;;;;;0.31;94.81;96919.72;6242612;28;20245;-68
2022/12/15 08:41:07;;;;;;;37.57;22.70;;;;;;;0.32;94.36;96917.97;6241901;28;20235;-69
2022/12/15 08:44:09;;;;;;;34.07;22.20;;;;;;;0.39;93.96;96914.16;6240700;28;20299;-69
2022/12/15 08:47:11;;;;;;;34.87;21.90;;;;;;;0.46;93.93;96930.22;6243426;28;20231;-69
2022/12/15 08:50:13;;;;;;;39.07;23.40;;;;;;;0.42;93.25;96933.88;6244336;28;20759;-68
2022/12/15 08:53:15;;;;;;;35.00;22.30;;;;;;;0.40;93.48;96930.56;6241615;28;20259;-69
2022/12/15 08:56:34;;;;;;;37.40;23.47;;;;;;;0.24;92.74;96944.31;6232433;28;20750;-69
2022/12/15 08:59:36;;;;;;;34.70;22.10;;;;;;;0.23;93.61;96958.19;6242756;28;20222;-68
2022/12/15 09:02:38;;;;;;;33.83;22.40;;;;;;;0.26;93.66;96959.81;6238961;28;20223;-68
2022/12/15 09:05:41;;;;;;;35.47;23.00;;;;;;;0.29;93.41;96963.09;6242705;28;20219;-68
2022/12/15 09:08:43;;;;;;;40.97;23.83;;;;;;;0.30;93.37;96961.34;6243421;28;20226;-68
2022/12/15 09:11:51;;;;;;;40.00;24.13;;;;;;;0.27;93.30;96946.75;6238715;28;20224;-68
2022/12/15 09:14:53;;;;;;;37.67;23.97;;;;;;;0.29;93.81;96951.88;6240018;28;21002;-68
2022/12/15 09:17:55;;;;;;;33.87;22.47;;;;;;;0.26;93.39;96950.25;6242095;28;20366;-69
2022/12/15 09:21:02;;;;;;;38.87;24.33;;;;;;;0.31;93.69;96937.03;6240293;28;20226;-69
2022/12/15 09:24:04;;;;;;;34.93;23.47;;;;;;;0.31;93.52;96924.91;6235963;28;20232;-68
2022/12/15 09:27:06;;;;;;;41.17;25.40;;;;;;;0.40;93.39;96935.75;6231709;28;20313;-68
2022/12/15 09:30:09;;;;;;;40.27;25.13;;;;;;;0.43;91.83;96943.34;6240396;28;20597;-68
2022/12/15 09:33:11;;;;;;;42.00;25.47;;;;;;;0.37;91.14;96952.31;6238379;28;20587;-68
2022/12/15 09:36:13;;;;;;;42.00;25.37;;;;;;;0.35;91.29;96960.16;6240823;28;20230;-68
2022/12/15 09:39:15;;;;;;;41.67;24.53;;;;;;;0.33;91.77;96951.63;6226742;28;20761;-68
2022/12/15 09:42:27;;;;;;;38.53;24.60;;;;;;;0.40;91.26;96952.13;6240692;28;20230;-68
2022/12/15 09:45:38;;;;;;;41.03;26.20;;;;;;;0.57;90.84;96935.69;6242696;28;20374;-68
2022/12/15 09:48:43;;;;;;;38.07;23.27;;;;;;;0.62;90.79;96942.31;6239945;28;20703;-68
2022/12/15 09:51:55;;;;;;;39.30;25.43;;;;;;;0.69;89.27;96955.84;6242869;28;20719;-67
2022/12/15 09:54:58;;;;;;;37.80;23.13;;;;;;;0.73;89.64;96958.16;6241469;28;20234;-68
2022/12/15 09:58:29;;;;;;;39.57;25.10;;;;;;;0.79;88.64;96951.00;6236259;28;20249;-68
2022/12/15 10:02:03;;;;;;;38.33;23.10;;;;;;;0.77;88.95;96953.66;6240510;28;20785;-67
2022/12/15 10:05:24;;;;;;;39.00;24.63;;;;;;;0.70;88.94;96953.13;6198740;28;20606;-68
2022/12/15 10:08:53;;;;;;;42.77;25.63;;;;;;;0.64;89.02;96958.66;6235793;28;20597;-68
2022/12/15 10:12:04;;;;;;;38.80;24.60;;;;;;;0.68;89.66;96949.81;6224443;28;20315;-68
2022/12/15 10:15:19;;;;;;;37.57;24.47;;;;;;;0.79;89.32;96945.81;6213869;28;20227;-68
2022/12/15 10:18:25;;;;;;;40.37;26.53;;;;;;;0.80;88.80;96956.06;6241784;28;20232;-68
2022/12/15 10:21:30;;;;;;;45.40;27.97;;;;;;;0.75;89.40;96942.50;6242518;28;20609;-68
2022/12/15 10:24:33;;;;;;;46.67;28.00;;;;;;;0.60;89.50;96948.53;6223929;28;20773;-68
2022/12/15 10:28:22;;;;;;;45.67;28.17;;;;;;;0.51;89.95;96929.06;6240184;28;20236;-69
2022/12/15 10:32:04;;;;;;;56.90;29.60;;;;;;;0.54;90.07;96941.03;6236401;28;20711;-67
2022/12/15 10:35:13;;;;;;;51.03;30.77;;;;;;;0.44;90.61;96960.63;6197436;28;20231;-68
2022/12/15 10:38:36;;;;;;;52.63;29.97;;;;;;;0.38;91.72;96954.00;6239484;28;20242;-69
2022/12/15 10:41:42;;;;;;;49.30;29.43;;;;;;;0.44;91.44;96955.41;6239685;28;20615;-69
2022/12/15 10:44:50;;;;;;;51.53;33.20;;;;;;;0.46;91.80;96941.44;6240767;28;20231;-68
2022/12/15 10:48:01;;;;;;;57.13;32.60;;;;;;;0.44;91.26;96952.81;6238186;28;20237;-68
2022/12/15 10:51:31;;;;;;;62.13;37.27;;;;;;;0.22;91.89;96945.28;6243296;28;20236;-69
2022/12/15 10:54:35;;;;;;;62.80;34.87;;;;;;;0.15;92.42;96943.94;6239908;28;20235;-67
2022/12/15 10:57:37;;;;;;;62.93;35.03;;;;;;;0.10;93.45;96951.13;6229999;28;20243;-68
2022/12/15 11:00:40;;;;;;;63.20;37.17;;;;;;;0.05;93.12;96956.53;6237573;28;20235;-68
2022/12/15 11:03:43;;;;;;;62.93;36.40;;;;;;;0.04;93.76;96956.59;6241346;28;20317;-69
2022/12/15 11:06:47;;;;;;;71.97;38.97;;;;;;;0.01;93.55;96952.41;6241838;28;20296;-69
2022/12/15 11:10:00;;;;;;;70.83;38.10;;;;;;;0.03;94.43;96962.72;6245609;28;20224;-68
2022/12/15 11:13:14;;;;;;;60.30;34.73;;;;;;;-0.02;94.43;96961.19;6240313;28;20231;-69
2022/12/15 11:16:18;;;;;;;73.87;39.23;;;;;;;-0.02;94.70;96958.59;6224489;28;20232;-69
2022/12/15 11:19:54;;;;;;;72.37;39.70;;;;;;;-0.19;94.51;96940.44;6241295;28;20228;-69
2022/12/15 11:23:23;;;;;;;83.13;41.97;;;;;;;-0.28;95.38;96937.44;6240223;28;20281;-69
2022/12/15 11:26:25;;;;;;;77.63;40.27;;;;;;;-0.28;95.58;96946.06;6240456;28;20232;-69
2022/12/15 11:29:52;;;;;;;70.80;37.93;;;;;;;-0.34;96.40;96942.94;6241822;28;20314;-69
2022/12/15 11:32:59;;;;;;;72.63;39.50;;;;;;;-0.39;96.57;96946.59;6242297;28;20256;-69
2022/12/15 11:36:26;;;;;;;70.47;39.33;;;;;;;-0.33;96.54;96955.00;6242337;28;20371;-68
2022/12/15 11:40:00;;;;;;;77.80;39.57;;;;;;;-0.35;96.71;96955.06;6242666;28;20243;-69
2022/12/15 11:43:31;;;;;;;78.10;39.47;;;;;;;-0.30;96.81;96929.75;6243323;28;20381;-69
2022/12/15 11:46:51;;;;;;;74.13;38.77;;;;;;;-0.24;97.44;96931.22;6222445;28;20327;-69
2022/12/15 11:50:17;;;;;;;81.13;40.33;;;;;;;-0.18;96.92;96930.91;6232776;28;20238;-69
2022/12/15 11:53:44;;;;;;;75.70;39.47;;;;;;;-0.13;96.82;96926.34;6247790;28;20259;-69
2022/12/15 11:56:58;;;;;;;78.33;39.50;;;;;;;-0.16;96.65;96923.88;6244069;28;20239;-69
2022/12/15 12:00:19;;;;;;;74.93;40.03;;;;;;;-0.23;96.91;96931.16;6242913;28;20232;-68
2022/12/15 12:03:23;;;;;;;78.10;41.57;;;;;;;-0.25;96.78;96940.75;6226448;28;20259;-69
2022/12/15 12:06:39;;;;;;;76.73;39.77;;;;;;;-0.27;97.35;96934.78;6232743;28;20484;-69
2022/12/15 12:10:03;;;;;;;76.20;40.33;;;;;;;-0.32;97.57;96939.38;6224200;28;20274;-69
2022/12/15 12:13:42;;;;;;;78.33;40.37;;;;;;;-0.32;97.67;96941.13;6243635;28;20239;-69
2022/12/15 12:17:02;;;;;;;73.70;39.30;;;;;;;-0.32;97.97;96939.38;6226298;28;20235;-69
2022/12/15 12:20:34;;;;;;;78.33;42.50;;;;;;;-0.30;97.77;96944.50;6242396;28;20343;-69
2022/12/15 12:23:59;;;;;;;75.40;39.07;;;;;;;-0.35;98.15;96934.34;6219601;28;20231;-68
2022/12/15 12:27:32;;;;;;;74.27;39.30;;;;;;;-0.34;98.22;96927.41;6222573;28;20257;-69
2022/12/15 12:30:45;;;;;;;69.17;34.97;;;;;;;-0.30;97.89;96921.97;6237438;28;20235;-68
2022/12/15 12:33:57;;;;;;;73.10;38.53;;;;;;;-0.29;98.44;96926.25;6241734;28;20255;-69
2022/12/15 12:37:31;;;;;;;71.00;37.23;;;;;;;-0.28;97.87;96927.09;6233329;28;20247;-69
2022/12/15 12:40:39;;;;;;;72.93;37.70;;;;;;;-0.32;97.85;96933.34;6224300;28;20785;-69
2022/12/15 12:43:49;;;;;;;83.97;41.20;;;;;;;-0.38;98.20;96929.28;6243372;28;20740;-69
2022/12/15 12:46:55;;;;;;;78.23;38.73;;;;;;;-0.39;98.42;96946.59;6243371;28;20377;-69
2022/12/15 12:50:14;;;;;;;75.47;37.63;;;;;;;-0.34;98.52;96948.13;6246191;28;20328;-69
2022/12/15 12:53:33;;;;;;;78.23;40.60;;;;;;;-0.30;98.42;96942.72;6244071;28;20249;-69
2022/12/15 12:56:42;;;;;;;73.13;40.03;;;;;;;-0.29;98.73;96959.09;6241643;28;20227;-69
2022/12/15 13:00:05;;;;;;;76.60;38.40;;;;;;;-0.29;98.14;96962.53;6242611;28;20319;-69
2022/12/15 13:03:10;;;;;;;66.80;37.10;;;;;;;-0.28;98.36;96958.19;6229184;28;20660;-69
2022/12/15 13:06:41;;;;;;;69.93;36.10;;;;;;;-0.25;98.48;96952.88;6241472;28;20223;-68
2022/12/15 13:09:59;;;;;;;70.23;37.57;;;;;;;-0.22;98.32;96968.28;6223703;28;20768;-69
2022/12/15 13:13:10;;;;;;;71.93;37.93;;;;;;;-0.27;98.04;96965.91;6206626;28;20353;-69
2022/12/15 13:16:25;;;;;;;65.83;34.53;;;;;;;-0.26;98.35;96946.00;6227499;28;20265;-69
2022/12/15 13:19:59;;;;;;;56.97;32.17;;;;;;;-0.26;98.12;96928.69;6240698;28;20322;-69
2022/12/15 13:23:20;;;;;;;74.93;39.30;;;;;;;-0.26;98.59;96922.66;6145244;28;20369;-69
2022/12/15 13:26:22;;;;;;;75.87;39.33;;;;;;;-0.32;98.32;96923.81;6124152;28;20703;-69
2022/12/15 13:29:25;;;;;;;74.00;40.17;;;;;;;-0.33;98.09;96932.50;6141088;28;20752;-69
2022/12/15 13:32:39;;;;;;;65.10;37.63;;;;;;;-0.33;98.64;96940.28;6137922;28;20234;-69
2022/12/15 13:35:42;;;;;;;62.73;35.37;;;;;;;-0.33;98.91;96940.28;6138862;28;20239;-69
2022/12/15 13:38:53;;;;;;;69.87;37.70;;;;;;;-0.28;98.88;96960.78;6147274;28;20665;-69
2022/12/15 13:41:54;;;;;;;65.83;37.00;;;;;;;-0.29;98.64;96967.72;6141021;28;20238;-69
2022/12/15 13:45:31;;;;;;;70.57;38.63;;;;;;;-0.29;98.60;96961.69;6137891;28;20227;-69
2022/12/15 13:48:39;;;;;;;68.53;37.17;;;;;;;-0.31;98.87;96972.16;6121571;28;20234;-69
2022/12/15 13:51:44;;;;;;;69.87;39.83;;;;;;;-0.31;98.73;96979.94;6144768;28;20236;-70
2022/12/15 13:55:00;;;;;;;66.83;38.47;;;;;;;-0.34;99.33;96969.72;6140401;28;20333;-69
2022/12/15 13:58:12;;;;;;;69.80;38.73;;;;;;;-0.38;98.65;96956.06;6119140;28;20246;-69
2022/12/15 14:01:20;;;;;;;63.20;34.90;;;;;;;-0.40;99.15;96964.84;6239282;28;20315;-69
2022/12/15 14:04:28;;;;;;;63.90;36.40;;;;;;;-0.40;98.95;96955.28;6222546;28;20342;-69
2022/12/15 14:07:30;;;;;;;67.70;38.03;;;;;;;-0.41;99.08;96950.19;6240770;28;20697;-68
2022/12/15 14:10:32;;;;;;;69.87;39.43;;;;;;;-0.45;99.44;96961.59;6239813;28;20245;-69
2022/12/15 14:13:35;;;;;;;71.00;39.70;;;;;;;-0.48;99.66;96964.34;6238643;28;20382;-69
2022/12/15 14:16:38;;;;;;;68.07;40.37;;;;;;;-0.52;99.92;96955.06;6219633;28;20330;-70
2022/12/15 14:19:43;;;;;;;67.57;39.30;;;;;;;-0.54;100.00;96944.75;6231821;28;20243;-69
2022/12/15 14:22:46;;;;;;;77.47;41.13;;;;;;;-0.56;100.00;96948.31;6238858;28;20258;-69
2022/12/15 14:26:03;;;;;;;72.17;40.73;;;;;;;-0.59;100.00;96938.09;6239801;28;20231;-69
2022/12/15 14:29:05;;;;;;;77.53;41.10;;;;;;;-0.56;100.00;96943.13;6222083;28;20230;-69
2022/12/15 14:32:09;;;;;;;75.13;39.70;;;;;;;-0.59;100.00;96944.13;6224282;28;20239;-69
2022/12/15 14:35:25;;;;;;;73.47;40.87;;;;;;;-0.59;100.00;96935.50;6241021;28;20377;-69
2022/12/15 14:38:32;;;;;;;81.13;43.10;;;;;;;-0.58;100.00;96942.38;6239507;28;20238;-69
2022/12/15 14:41:39;;;;;;;82.50;42.30;;;;;;;-0.56;100.00;96948.31;6239439;28;20235;-69
2022/12/15 14:44:45;;;;;;;79.73;40.93;;;;;;;-0.59;100.00;96938.94;6223958;28;20338;-69
2022/12/15 14:47:55;;;;;;;73.77;40.40;;;;;;;-0.62;100.00;96936.53;6242261;28;20231;-69
2022/12/15 14:51:17;;;;;;;70.87;41.37;;;;;;;-0.60;100.00;96926.09;6235954;28;20242;-69
2022/12/15 14:54:38;;;;;;;77.83;42.70;;;;;;;-0.60;100.00;96926.91;6227470;28;20591;-69
2022/12/15 14:57:43;;;;;;;79.63;43.00;;;;;;;-0.63;100.00;96902.91;6245009;28;20227;-69
2022/12/15 15:00:51;;;;;;;67.50;39.17;;;;;;;-0.62;100.00;96895.06;6246820;28;20308;-69
2022/12/15 15:03:59;;;;;;;76.20;41.20;;;;;;;-0.60;100.00;96877.66;6245532;28;20297;-69
2022/12/15 15:07:05;;;;;;;82.20;43.57;;;;;;;-0.63;100.00;96879.59;6245476;28;20247;-69
2022/12/15 15:10:23;;;;;;;90.30;46.30;;;;;;;-0.69;100.00;96887.63;6246615;28;20266;-69
2022/12/15 15:13:39;;;;;;;84.13;44.07;;;;;;;-0.75;100.00;96902.56;6228117;28;20236;-69
2022/12/15 15:16:42;;;;;;;89.27;45.70;;;;;;;-0.78;100.00;96909.66;6246188;28;20228;-69
2022/12/15 15:19:52;;;;;;;97.13;47.40;;;;;;;-0.83;100.00;96917.66;6245960;28;20234;-69
2022/12/15 15:23:06;;;;;;;93.60;47.37;;;;;;;-0.86;100.00;96946.28;6242664;28;20228;-69
2022/12/15 15:26:09;;;;;;;98.90;49.93;;;;;;;-0.86;100.00;96963.56;6235593;28;20315;-69
2022/12/15 15:29:29;;;;;;;97.60;48.73;;;;;;;-0.86;100.00;96966.16;6246472;28;20734;-69
2022/12/15 15:32:31;;;;;;;92.70;45.97;;;;;;;-0.84;100.00;96967.78;6245153;28;20233;-69
2022/12/15 15:35:34;;;;;;;89.13;47.53;;;;;;;-0.81;100.00;96956.44;6242621;28;20305;-68
2022/12/15 15:38:40;;;;;;;95.20;46.57;;;;;;;-0.83;100.00;96951.31;6219659;28;20311;-69
2022/12/15 15:41:42;;;;;;;91.23;45.97;;;;;;;-0.83;100.00;96960.84;6242604;28;20349;-69
2022/12/15 15:44:44;;;;;;;99.43;47.60;;;;;;;-0.84;100.00;96952.22;6244651;28;20279;-70
2022/12/15 15:47:50;;;;;;;87.97;41.63;;;;;;;-0.84;100.00;96962.59;6228144;28;20234;-69
2022/12/15 15:50:59;;;;;;;86.63;42.77;;;;;;;-0.83;100.00;96951.31;6245307;28;20235;-69
2022/12/15 15:54:05;;;;;;;103.27;47.83;;;;;;;-0.84;100.00;96951.38;6243957;28;20255;-69
2022/12/15 15:57:14;;;;;;;85.97;41.97;;;;;;;-0.87;100.00;96946.34;6241111;28;20281;-69
2022/12/15 16:00:20;;;;;;;84.33;43.73;;;;;;;-0.86;100.00;96945.44;6242917;28;20310;-69
2022/12/15 16:03:22;;;;;;;94.10;43.67;;;;;;;-0.86;100.00;96932.50;6225533;28;20262;-69
2022/12/15 16:06:24;;;;;;;89.23;42.43;;;;;;;-0.89;100.00;96936.06;6234180;28;20219;-69
2022/12/15 16:09:26;;;;;;;88.07;41.40;;;;;;;-0.88;100.00;96942.91;6243985;28;20223;-69
2022/12/15 16:12:41;;;;;;;79.13;40.67;;;;;;;-0.85;100.00;96936.75;6245628;28;20599;-69
2022/12/15 16:15:44;;;;;;;82.37;40.87;;;;;;;-0.84;100.00;96947.06;6230263;28;20282;-69
2022/12/15 16:18:46;;;;;;;68.80;35.97;;;;;;;-0.81;100.00;96938.31;6253289;28;20680;-69
2022/12/15 16:21:50;;;;;;;82.00;40.30;;;;;;;-0.79;100.00;96936.47;6243009;28;20219;-69
2022/12/15 16:24:52;;;;;;;91.97;43.17;;;;;;;-0.78;100.00;96920.84;6248414;28;20772;-69
2022/12/15 16:27:54;;;;;;;85.50;44.13;;;;;;;-0.80;100.00;96932.22;6249875;28;20239;-69
2022/12/15 16:30:57;;;;;;;89.43;42.87;;;;;;;-0.82;100.00;96926.25;6246297;28;20215;-69
2022/12/15 16:33:59;;;;;;;92.40;45.40;;;;;;;-0.83;100.00;96935.78;6250741;28;20219;-69
2022/12/15 16:37:02;;;;;;;82.53;41.83;;;;;;;-0.84;100.00;96928.06;6226951;28;20215;-69
2022/12/15 16:40:21;;;;;;;89.23;42.90;;;;;;;-0.84;100.00;96926.34;6224444;28;20751;-69
2022/12/15 16:43:25;;;;;;;92.37;44.53;;;;;;;-0.84;100.00;96925.50;6240024;28;20719;-70